createdAt,value
2018-02-09T00:00:29.981Z,23.90
2018-02-09T00:01:35.499Z,22.70
2018-02-09T00:02:41.026Z,19.80
2018-02-09T00:03:46.548Z,18.80
2018-02-09T00:04:52.073Z,22.70
2018-02-09T00:05:57.601Z,21.80
2018-02-09T00:07:03.121Z,21.70
2018-02-09T00:08:08.649Z,20.30
2018-02-09T00:09:14.171Z,24.10
2018-02-09T00:10:19.702Z,24.60
2018-02-09T00:11:25.223Z,26.10
2018-02-09T00:12:30.742Z,24.80
2018-02-09T00:13:36.270Z,26.00
2018-02-09T00:14:41.794Z,24.10
2018-02-09T00:15:47.316Z,26.20
2018-02-09T00:16:52.838Z,25.90
2018-02-09T00:17:58.379Z,25.70
2018-02-09T00:19:03.892Z,23.40
2018-02-09T00:20:09.423Z,25.40
2018-02-09T00:21:14.937Z,25.40
2018-02-09T00:22:20.470Z,25.40
2018-02-09T00:23:25.985Z,25.50
2018-02-09T00:24:31.512Z,25.80
2018-02-09T00:25:37.039Z,24.10
2018-02-09T00:26:42.560Z,22.80
2018-02-09T00:27:48.092Z,26.40
2018-02-09T00:28:53.607Z,23.80
2018-02-09T00:29:59.137Z,25.20
2018-02-09T00:31:04.666Z,25.90
2018-02-09T00:32:10.186Z,24.50
2018-02-09T00:33:15.708Z,25.10
2018-02-09T00:34:21.233Z,24.60
2018-02-09T00:35:26.756Z,24.60
2018-02-09T00:36:32.281Z,25.70
2018-02-09T00:37:37.805Z,24.20
2018-02-09T00:38:43.329Z,23.80
2018-02-09T00:39:48.855Z,24.10
2018-02-09T00:40:54.376Z,23.70
2018-02-09T00:41:59.902Z,22.30
2018-02-09T00:43:05.423Z,22.10
2018-02-09T00:44:10.949Z,18.80
2018-02-09T00:45:16.475Z,20.50
2018-02-09T00:46:21.999Z,22.80
2018-02-09T00:47:27.525Z,24.10
2018-02-09T00:48:33.047Z,21.40
2018-02-09T00:49:38.575Z,24.50
2018-02-09T00:50:44.093Z,22.90
2018-02-09T00:51:49.626Z,25.00
2018-02-09T00:52:55.138Z,26.00
2018-02-09T00:54:00.669Z,22.90
2018-02-09T00:55:06.189Z,23.90
2018-02-09T00:56:11.722Z,24.20
2018-02-09T00:57:17.243Z,24.40
2018-02-09T00:58:22.764Z,22.90
2018-02-09T00:59:28.286Z,25.40
2018-02-09T01:00:33.816Z,24.70
2018-02-09T01:01:39.334Z,24.60
2018-02-09T01:02:44.863Z,24.00
2018-02-09T01:03:50.381Z,23.70
2018-02-09T01:04:55.911Z,23.40
2018-02-09T01:06:01.433Z,24.60
2018-02-09T01:07:06.963Z,26.00
2018-02-09T01:08:12.478Z,25.30
2018-02-09T01:09:18.006Z,23.30
2018-02-09T01:10:23.530Z,25.50
2018-02-09T01:11:29.054Z,21.90
2018-02-09T01:12:34.580Z,26.70
2018-02-09T01:13:40.098Z,23.80
2018-02-09T01:14:45.629Z,25.70
2018-02-09T01:15:51.148Z,24.80
2018-02-09T01:16:56.680Z,22.90
2018-02-09T01:18:02.195Z,24.80
2018-02-09T01:19:07.720Z,24.00
2018-02-09T01:20:13.252Z,25.70
2018-02-09T01:21:18.772Z,22.80
2018-02-09T01:22:24.294Z,25.00
2018-02-09T01:23:29.815Z,23.70
2018-02-09T01:24:35.344Z,22.40
2018-02-09T01:25:40.865Z,25.20
2018-02-09T01:26:46.391Z,22.20
2018-02-09T01:27:51.915Z,24.90
2018-02-09T01:28:57.435Z,24.50
2018-02-09T01:30:02.965Z,22.20
2018-02-09T01:31:08.483Z,22.60
2018-02-09T01:32:14.012Z,26.40
2018-02-09T01:33:19.540Z,25.20
2018-02-09T01:34:25.059Z,23.20
2018-02-09T01:35:30.582Z,26.10
2018-02-09T01:36:36.111Z,25.30
2018-02-09T01:37:41.627Z,25.70
2018-02-09T01:38:47.152Z,24.90
2018-02-09T01:39:52.674Z,26.00
2018-02-09T01:40:58.200Z,24.70
2018-02-09T01:42:03.731Z,25.40
2018-02-09T01:43:09.251Z,25.60
2018-02-09T01:44:14.771Z,26.50
2018-02-09T01:45:20.306Z,25.20
2018-02-09T01:46:25.822Z,25.90
2018-02-09T01:47:31.355Z,28.20
2018-02-09T01:48:36.865Z,26.80
2018-02-09T01:49:42.394Z,27.20
2018-02-09T01:50:47.922Z,26.60
2018-02-09T01:51:53.441Z,25.70
2018-02-09T01:52:58.964Z,24.60
2018-02-09T01:54:04.492Z,21.80
2018-02-09T01:55:10.010Z,26.10
2018-02-09T01:56:15.536Z,24.00
2018-02-09T01:57:21.061Z,26.90
2018-02-09T01:58:26.581Z,23.10
2018-02-09T01:59:32.102Z,26.70
2018-02-09T02:00:37.632Z,26.00
2018-02-09T02:01:43.151Z,26.80
2018-02-09T02:02:48.680Z,26.80
2018-02-09T02:03:54.201Z,24.50
2018-02-09T02:04:59.724Z,24.00
2018-02-09T02:06:05.250Z,24.70
2018-02-09T02:07:10.770Z,24.60
2018-02-09T02:08:16.306Z,25.00
2018-02-09T02:09:21.827Z,24.40
2018-02-09T02:10:27.346Z,24.60
2018-02-09T02:11:32.872Z,25.30
2018-02-09T02:12:38.390Z,24.40
2018-02-09T02:13:43.919Z,25.80
2018-02-09T02:14:49.442Z,24.70
2018-02-09T02:15:54.967Z,26.40
2018-02-09T02:17:00.488Z,26.20
2018-02-09T02:18:06.011Z,27.50
2018-02-09T02:19:11.534Z,24.40
2018-02-09T02:20:17.061Z,26.10
2018-02-09T02:21:22.583Z,26.20
2018-02-09T02:22:28.111Z,23.00
2018-02-09T02:23:33.629Z,25.00
2018-02-09T02:24:39.159Z,24.40
2018-02-09T02:25:44.680Z,22.10
2018-02-09T02:26:50.206Z,25.10
2018-02-09T02:27:55.724Z,26.90
2018-02-09T02:29:01.254Z,26.40
2018-02-09T02:30:06.789Z,25.70
2018-02-09T02:31:12.297Z,24.40
2018-02-09T02:32:17.831Z,24.80
2018-02-09T02:33:23.350Z,27.90
2018-02-09T02:34:28.870Z,27.30
2018-02-09T02:35:34.391Z,30.30
2018-02-09T02:36:39.922Z,28.10
2018-02-09T02:37:45.441Z,28.90
2018-02-09T02:38:50.967Z,28.20
2018-02-09T02:39:56.493Z,27.60
2018-02-09T02:41:02.013Z,28.90
2018-02-09T02:42:07.541Z,26.10
2018-02-09T02:43:13.067Z,27.10
2018-02-09T02:44:18.590Z,26.30
2018-02-09T02:45:24.111Z,27.40
2018-02-09T02:46:29.634Z,26.40
2018-02-09T02:47:35.155Z,26.40
2018-02-09T02:48:40.679Z,26.50
2018-02-09T02:49:46.229Z,25.20
2018-02-09T02:50:51.727Z,25.30
2018-02-09T02:51:57.252Z,25.00
2018-02-09T02:53:02.780Z,26.20
2018-02-09T02:54:08.295Z,26.10
2018-02-09T02:55:13.824Z,25.40
2018-02-09T02:56:19.349Z,26.00
2018-02-09T02:57:24.873Z,27.70
2018-02-09T02:58:30.391Z,28.30
2018-02-09T02:59:35.924Z,26.90
2018-02-09T03:00:41.444Z,27.40
2018-02-09T03:01:46.962Z,25.30
2018-02-09T03:02:52.490Z,26.40
2018-02-09T03:03:58.011Z,29.10
2018-02-09T03:05:03.539Z,25.60
2018-02-09T03:06:09.058Z,26.00
2018-02-09T03:07:14.584Z,27.20
2018-02-09T03:08:20.112Z,25.70
2018-02-09T03:09:25.634Z,26.30
2018-02-09T03:10:31.160Z,25.30
2018-02-09T03:11:36.687Z,27.40
2018-02-09T03:12:42.209Z,27.50
2018-02-09T03:13:47.773Z,26.20
2018-02-09T03:14:53.250Z,25.70
2018-02-09T03:15:58.774Z,26.50
2018-02-09T03:17:04.297Z,25.30
2018-02-09T03:18:09.831Z,26.20
2018-02-09T03:19:15.342Z,25.80
2018-02-09T03:20:20.872Z,26.40
2018-02-09T03:21:26.391Z,25.80
2018-02-09T03:22:31.922Z,25.50
2018-02-09T03:23:37.441Z,28.50
2018-02-09T03:24:42.962Z,24.10
2018-02-09T03:25:48.488Z,25.30
2018-02-09T03:26:54.016Z,26.70
2018-02-09T03:27:59.532Z,28.00
2018-02-09T03:29:05.064Z,26.30
2018-02-09T03:30:10.587Z,28.10
2018-02-09T03:31:16.104Z,23.00
2018-02-09T03:32:21.627Z,27.00
2018-02-09T03:33:27.151Z,25.60
2018-02-09T03:34:32.678Z,27.10
2018-02-09T03:35:38.200Z,26.80
2018-02-09T03:36:43.723Z,25.90
2018-02-09T03:37:49.253Z,26.20
2018-02-09T03:38:54.776Z,28.60
2018-02-09T03:40:00.294Z,27.60
2018-02-09T03:41:05.825Z,25.70
2018-02-09T03:42:11.343Z,26.40
2018-02-09T03:43:16.868Z,31.60
2018-02-09T03:44:22.393Z,39.00
2018-02-09T03:45:27.914Z,39.10
2018-02-09T03:46:33.443Z,39.40
2018-02-09T03:47:38.963Z,39.40
2018-02-09T03:48:44.485Z,36.10
2018-02-09T03:49:50.013Z,35.70
2018-02-09T03:50:55.539Z,38.90
2018-02-09T03:52:01.064Z,31.80
2018-02-09T03:53:06.584Z,31.70
2018-02-09T03:54:12.104Z,27.60
2018-02-09T03:55:17.630Z,28.10
2018-02-09T03:56:23.150Z,29.20
2018-02-09T03:57:28.675Z,27.30
2018-02-09T03:58:34.199Z,28.10
2018-02-09T03:59:39.723Z,28.20
2018-02-09T04:00:45.246Z,28.80
2018-02-09T04:01:50.771Z,29.20
2018-02-09T04:02:56.297Z,30.30
2018-02-09T04:04:01.824Z,27.90
2018-02-09T04:05:07.341Z,29.00
2018-02-09T04:06:12.863Z,28.70
2018-02-09T04:07:18.480Z,27.20
2018-02-09T04:08:23.915Z,28.70
2018-02-09T04:09:29.439Z,29.50
2018-02-09T04:10:34.965Z,30.00
2018-02-09T04:11:40.483Z,29.60
2018-02-09T04:12:46.007Z,28.60
2018-02-09T04:13:51.529Z,28.60
2018-02-09T04:14:57.056Z,27.70
2018-02-09T04:16:02.579Z,27.60
2018-02-09T04:17:08.100Z,27.30
2018-02-09T04:18:13.630Z,27.20
2018-02-09T04:19:19.148Z,27.00
2018-02-09T04:20:24.676Z,27.50
2018-02-09T04:21:30.203Z,26.70
2018-02-09T04:22:35.721Z,26.70
2018-02-09T04:23:41.251Z,27.00
2018-02-09T04:24:46.771Z,28.10
2018-02-09T04:25:52.293Z,27.70
2018-02-09T04:26:57.814Z,30.30
2018-02-09T04:28:03.339Z,29.90
2018-02-09T04:29:08.864Z,44.10
2018-02-09T04:30:14.389Z,39.80
2018-02-09T04:31:19.921Z,41.20
2018-02-09T04:32:25.435Z,41.90
2018-02-09T04:33:30.964Z,38.80
2018-02-09T04:34:36.492Z,39.30
2018-02-09T04:35:42.009Z,34.80
2018-02-09T04:36:47.538Z,32.50
2018-02-09T04:37:53.054Z,31.40
2018-02-09T04:38:58.584Z,30.00
2018-02-09T04:40:04.105Z,27.80
2018-02-09T04:41:09.623Z,26.90
2018-02-09T04:42:15.153Z,26.90
2018-02-09T04:43:20.674Z,25.60
2018-02-09T04:44:26.194Z,25.30
2018-02-09T04:45:31.725Z,26.50
2018-02-09T04:46:37.244Z,28.00
2018-02-09T04:47:42.767Z,25.40
2018-02-09T04:48:48.291Z,27.80
2018-02-09T04:49:53.820Z,26.70
2018-02-09T04:50:59.344Z,30.30
2018-02-09T04:52:04.862Z,30.60
2018-02-09T04:53:10.394Z,32.90
2018-02-09T04:54:15.915Z,32.70
2018-02-09T04:55:21.433Z,33.70
2018-02-09T04:56:26.962Z,32.40
2018-02-09T04:57:32.482Z,31.40
2018-02-09T04:58:38.010Z,31.80
2018-02-09T04:59:43.537Z,32.10
2018-02-09T05:00:49.063Z,30.40
2018-02-09T05:01:54.575Z,31.10
2018-02-09T05:03:00.107Z,30.90
2018-02-09T05:04:05.627Z,30.20
2018-02-09T05:05:11.153Z,29.90
2018-02-09T05:06:16.672Z,31.40
2018-02-09T05:07:22.242Z,31.90
2018-02-09T05:08:27.720Z,29.30
2018-02-09T05:09:33.261Z,31.30
2018-02-09T05:10:38.768Z,33.10
2018-02-09T05:11:44.292Z,31.20
2018-02-09T05:12:49.816Z,34.80
2018-02-09T05:13:55.343Z,29.80
2018-02-09T05:15:00.863Z,34.90
2018-02-09T05:16:06.391Z,32.50
2018-02-09T05:17:11.951Z,32.70
2018-02-09T05:18:17.437Z,29.40
2018-02-09T05:19:22.958Z,28.50
2018-02-09T05:20:28.486Z,29.90
2018-02-09T05:21:34.007Z,31.70
2018-02-09T05:22:39.532Z,30.60
2018-02-09T05:23:45.053Z,33.20
2018-02-09T05:24:50.585Z,31.90
2018-02-09T05:25:56.104Z,31.60
2018-02-09T05:27:01.628Z,30.40
2018-02-09T05:28:07.152Z,29.90
2018-02-09T05:29:12.672Z,28.40
2018-02-09T05:30:18.197Z,27.10
2018-02-09T05:31:23.729Z,27.50
2018-02-09T05:32:29.242Z,28.00
2018-02-09T05:33:34.771Z,29.00
2018-02-09T05:34:40.299Z,29.90
2018-02-09T05:35:45.823Z,29.50
2018-02-09T05:36:51.376Z,29.20
2018-02-09T05:37:56.867Z,27.00
2018-02-09T05:39:02.393Z,27.20
2018-02-09T05:40:07.913Z,27.10
2018-02-09T05:41:13.435Z,29.60
2018-02-09T05:42:18.959Z,25.80
2018-02-09T05:43:24.485Z,27.50
2018-02-09T05:44:30.008Z,26.90
2018-02-09T05:45:35.534Z,26.40
2018-02-09T05:46:41.063Z,27.10
2018-02-09T05:47:46.577Z,26.60
2018-02-09T05:48:52.107Z,27.70
2018-02-09T05:49:57.628Z,26.50
2018-02-09T05:51:03.152Z,26.50
2018-02-09T05:52:08.672Z,28.30
2018-02-09T05:53:14.198Z,29.50
2018-02-09T05:54:19.722Z,29.00
2018-02-09T05:55:25.244Z,28.30
2018-02-09T05:56:30.768Z,30.00
2018-02-09T05:57:36.302Z,31.20
2018-02-09T05:58:41.940Z,29.10
2018-02-09T05:59:47.343Z,30.50
2018-02-09T06:00:52.985Z,31.30
2018-02-09T06:01:58.390Z,27.20
2018-02-09T06:03:03.914Z,28.40
2018-02-09T06:04:09.450Z,29.80
2018-02-09T06:05:14.965Z,29.20
2018-02-09T06:06:20.490Z,29.10
2018-02-09T06:07:26.134Z,29.40
2018-02-09T06:08:31.530Z,30.00
2018-02-09T06:09:37.054Z,27.10
2018-02-09T06:10:42.665Z,33.00
2018-02-09T06:11:48.105Z,29.40
2018-02-09T06:12:53.625Z,30.00
2018-02-09T06:13:59.163Z,30.30
2018-02-09T06:15:04.678Z,30.80
2018-02-09T06:16:10.199Z,30.10
2018-02-09T06:17:15.722Z,28.10
2018-02-09T06:18:21.246Z,30.20
2018-02-09T06:19:26.767Z,29.00
2018-02-09T06:20:32.292Z,27.90
2018-02-09T06:21:37.815Z,28.20
2018-02-09T06:22:43.341Z,29.70
2018-02-09T06:23:48.869Z,30.30
2018-02-09T06:24:54.394Z,29.00
2018-02-09T06:25:59.911Z,29.20
2018-02-09T06:27:05.435Z,29.50
2018-02-09T06:28:10.956Z,31.50
2018-02-09T06:29:16.488Z,28.10
2018-02-09T06:30:22.006Z,27.60
2018-02-09T06:31:27.531Z,31.10
2018-02-09T06:32:33.052Z,32.70
2018-02-09T06:33:38.575Z,32.60
2018-02-09T06:34:44.100Z,31.50
2018-02-09T06:35:49.622Z,33.50
2018-02-09T06:36:55.151Z,33.00
2018-02-09T06:38:00.671Z,31.50
2018-02-09T06:39:06.196Z,31.20
2018-02-09T06:40:11.716Z,31.30
2018-02-09T06:41:17.248Z,30.70
2018-02-09T06:42:22.767Z,29.90
2018-02-09T06:43:28.291Z,30.50
2018-02-09T06:44:33.820Z,29.10
2018-02-09T06:45:39.335Z,28.20
2018-02-09T06:46:44.863Z,29.90
2018-02-09T06:47:50.387Z,32.80
2018-02-09T06:48:55.912Z,32.40
2018-02-09T06:50:01.432Z,33.00
2018-02-09T06:51:06.961Z,33.50
2018-02-09T06:52:12.481Z,32.60
2018-02-09T06:53:18.003Z,31.10
2018-02-09T06:54:23.529Z,30.20
2018-02-09T06:55:29.057Z,31.10
2018-02-09T06:56:34.575Z,31.00
2018-02-09T06:57:40.096Z,31.10
2018-02-09T06:58:45.625Z,31.00
2018-02-09T06:59:51.149Z,31.80
2018-02-09T07:00:56.675Z,32.90
2018-02-09T07:02:02.193Z,32.50
2018-02-09T07:03:07.735Z,33.20
2018-02-09T07:04:13.241Z,32.50
2018-02-09T07:05:18.768Z,31.20
2018-02-09T07:06:24.299Z,32.00
2018-02-09T07:07:29.820Z,33.00
2018-02-09T07:08:35.345Z,33.00
2018-02-09T07:09:40.866Z,32.70
2018-02-09T07:10:46.386Z,32.20
2018-02-09T07:11:51.906Z,33.60
2018-02-09T07:12:57.440Z,32.90
2018-02-09T07:14:02.958Z,32.90
2018-02-09T07:15:08.479Z,31.80
2018-02-09T07:16:14.010Z,31.50
2018-02-09T07:17:19.532Z,34.80
2018-02-09T07:18:25.052Z,32.90
2018-02-09T07:19:30.574Z,33.90
2018-02-09T07:20:36.114Z,32.80
2018-02-09T07:21:41.628Z,32.40
2018-02-09T07:22:47.156Z,33.60
2018-02-09T07:23:52.669Z,34.90
2018-02-09T07:24:58.265Z,35.00
2018-02-09T07:26:03.717Z,33.00
2018-02-09T07:27:09.244Z,32.00
2018-02-09T07:28:14.765Z,34.60
2018-02-09T07:29:20.293Z,33.90
2018-02-09T07:30:25.819Z,33.90
2018-02-09T07:31:31.343Z,35.60
2018-02-09T07:32:36.862Z,34.30
2018-02-09T07:33:42.385Z,36.10
2018-02-09T07:34:47.909Z,35.00
2018-02-09T07:35:53.439Z,33.30
2018-02-09T07:36:58.958Z,36.00
2018-02-09T07:38:04.482Z,33.70
2018-02-09T07:39:10.007Z,34.20
2018-02-09T07:40:15.541Z,35.10
2018-02-09T07:41:21.056Z,34.50
2018-02-09T07:42:26.583Z,34.00
2018-02-09T07:43:32.136Z,33.60
2018-02-09T07:44:37.641Z,35.20
2018-02-09T07:45:43.152Z,36.20
2018-02-09T07:46:48.680Z,35.20
2018-02-09T07:47:54.200Z,35.50
2018-02-09T07:48:59.730Z,34.80
2018-02-09T07:50:05.251Z,37.30
2018-02-09T07:51:10.779Z,36.10
2018-02-09T07:52:16.299Z,35.20
2018-02-09T07:53:21.823Z,36.80
2018-02-09T07:54:27.346Z,35.90
2018-02-09T07:55:32.871Z,33.80
2018-02-09T07:56:38.396Z,37.50
2018-02-09T07:57:43.916Z,36.30
2018-02-09T07:58:49.441Z,35.90
2018-02-09T07:59:54.971Z,35.30
2018-02-09T08:01:00.492Z,34.70
2018-02-09T08:02:06.015Z,36.20
2018-02-09T08:03:11.541Z,36.30
2018-02-09T08:04:17.100Z,35.90
2018-02-09T08:05:22.592Z,37.90
2018-02-09T08:06:28.121Z,37.20
2018-02-09T08:07:33.641Z,36.80
2018-02-09T08:08:39.162Z,36.40
2018-02-09T08:09:44.686Z,36.70
2018-02-09T08:10:50.212Z,35.00
2018-02-09T08:11:55.768Z,37.80
2018-02-09T08:13:01.268Z,36.10
2018-02-09T08:14:06.785Z,35.40
2018-02-09T08:15:12.314Z,38.70
2018-02-09T08:16:17.834Z,36.90
2018-02-09T08:17:23.364Z,36.50
2018-02-09T08:18:28.886Z,36.90
2018-02-09T08:19:34.411Z,37.20
2018-02-09T08:20:39.939Z,38.50
2018-02-09T08:21:45.463Z,38.60
2018-02-09T08:22:50.986Z,38.20
2018-02-09T08:23:56.510Z,38.50
2018-02-09T08:25:02.044Z,37.90
2018-02-09T08:26:07.561Z,38.00
2018-02-09T08:27:13.081Z,39.50
2018-02-09T08:28:18.612Z,40.70
2018-02-09T08:29:24.137Z,39.40
2018-02-09T08:30:29.661Z,40.90
2018-02-09T08:31:35.181Z,40.80
2018-02-09T08:32:40.708Z,38.60
2018-02-09T08:33:46.232Z,38.70
2018-02-09T08:34:51.759Z,38.90
2018-02-09T08:35:57.278Z,38.90
2018-02-09T08:37:02.813Z,40.10
2018-02-09T08:38:08.330Z,39.10
2018-02-09T08:39:13.859Z,39.00
2018-02-09T08:40:19.378Z,39.40
2018-02-09T08:41:24.917Z,40.10
2018-02-09T08:42:30.436Z,38.70
2018-02-09T08:43:36.016Z,41.50
2018-02-09T08:44:41.486Z,40.10
2018-02-09T08:45:47.011Z,37.50
2018-02-09T08:46:52.537Z,40.90
2018-02-09T08:47:58.061Z,39.50
2018-02-09T08:49:03.581Z,41.70
2018-02-09T08:50:09.113Z,39.40
2018-02-09T08:51:14.636Z,42.40
2018-02-09T08:52:20.160Z,41.00
2018-02-09T08:53:25.686Z,40.20
2018-02-09T08:54:31.206Z,40.60
2018-02-09T08:55:36.738Z,41.50
2018-02-09T08:56:42.266Z,40.10
2018-02-09T08:57:47.785Z,42.00
2018-02-09T08:58:53.312Z,41.40
2018-02-09T08:59:58.842Z,39.90
2018-02-09T09:01:04.360Z,44.10
2018-02-09T09:02:09.893Z,43.10
2018-02-09T09:03:15.416Z,41.20
2018-02-09T09:04:20.943Z,42.60
2018-02-09T09:05:26.469Z,41.20
2018-02-09T09:06:31.993Z,40.90
2018-02-09T09:07:37.519Z,42.00
2018-02-09T09:08:43.050Z,40.70
2018-02-09T09:09:48.568Z,40.80
2018-02-09T09:10:54.096Z,39.50
2018-02-09T09:11:59.622Z,41.10
2018-02-09T09:13:05.152Z,40.70
2018-02-09T09:14:10.671Z,41.60
2018-02-09T09:15:16.208Z,40.10
2018-02-09T09:16:21.729Z,42.10
2018-02-09T09:17:27.252Z,43.00
2018-02-09T09:18:32.782Z,43.50
2018-02-09T09:19:38.311Z,43.60
2018-02-09T09:20:43.834Z,44.00
2018-02-09T09:21:49.353Z,42.90
2018-02-09T09:22:54.883Z,44.20
2018-02-09T09:24:00.409Z,41.40
2018-02-09T09:25:05.939Z,41.60
2018-02-09T09:26:11.458Z,41.90
2018-02-09T09:27:16.991Z,43.50
2018-02-09T09:28:22.512Z,43.70
2018-02-09T09:29:28.036Z,41.90
2018-02-09T09:30:33.566Z,41.20
2018-02-09T09:31:39.092Z,42.60
2018-02-09T09:32:44.619Z,43.60
2018-02-09T09:33:50.144Z,44.20
2018-02-09T09:34:55.673Z,40.40
2018-02-09T09:36:01.198Z,41.50
2018-02-09T09:37:06.725Z,41.50
2018-02-09T09:38:12.252Z,40.20
2018-02-09T09:39:17.782Z,41.30
2018-02-09T09:40:23.300Z,41.40
2018-02-09T09:41:28.832Z,42.50
2018-02-09T09:42:34.360Z,43.00
2018-02-09T09:43:39.884Z,41.60
2018-02-09T09:44:45.424Z,43.00
2018-02-09T09:45:50.937Z,42.10
2018-02-09T09:46:56.464Z,41.30
2018-02-09T09:48:01.991Z,42.40
2018-02-09T09:49:07.518Z,41.40
2018-02-09T09:50:13.044Z,42.60
2018-02-09T09:51:18.568Z,44.30
2018-02-09T09:52:24.101Z,42.50
2018-02-09T09:53:29.631Z,44.40
2018-02-09T09:54:35.152Z,43.30
2018-02-09T09:55:40.689Z,45.20
2018-02-09T09:56:46.209Z,44.10
2018-02-09T09:57:51.732Z,42.60
2018-02-09T09:58:57.260Z,44.20
2018-02-09T10:00:02.790Z,41.60
2018-02-09T10:01:08.320Z,43.00
2018-02-09T10:02:13.842Z,42.60
2018-02-09T10:03:19.371Z,45.70
2018-02-09T10:04:24.900Z,45.30
2018-02-09T10:05:30.426Z,45.70
2018-02-09T10:06:35.947Z,46.50
2018-02-09T10:07:41.485Z,44.40
2018-02-09T10:08:47.013Z,45.20
2018-02-09T10:09:52.532Z,45.30
2018-02-09T10:10:58.059Z,43.10
2018-02-09T10:13:35.351Z,42.40
2018-02-09T10:14:40.789Z,42.40
2018-02-09T10:16:39.352Z,43.70
2018-02-09T10:17:44.949Z,45.00
2018-02-09T10:19:43.281Z,43.70
2018-02-09T10:20:48.790Z,45.60
2018-02-09T10:22:47.298Z,44.90
2018-02-09T10:23:52.822Z,42.80
2018-02-09T10:24:58.356Z,44.60
2018-02-09T10:26:03.872Z,41.30
2018-02-09T10:27:09.397Z,42.50
2018-02-09T10:28:14.922Z,45.30
2018-02-09T10:29:20.454Z,44.80
2018-02-09T10:30:25.984Z,45.30
2018-02-09T10:31:31.518Z,43.90
2018-02-09T10:32:37.033Z,43.30
2018-02-09T10:33:42.564Z,46.50
2018-02-09T10:34:48.083Z,44.10
2018-02-09T10:35:53.617Z,45.90
2018-02-09T10:36:59.141Z,46.10
2018-02-09T10:38:04.670Z,42.70
2018-02-09T10:39:10.203Z,42.30
2018-02-09T10:40:15.722Z,43.70
2018-02-09T10:41:21.249Z,43.90
2018-02-09T10:42:26.777Z,46.00
2018-02-09T10:43:32.303Z,44.70
2018-02-09T10:44:37.834Z,44.60
2018-02-09T10:45:43.428Z,43.00
2018-02-09T10:46:48.890Z,43.60
2018-02-09T10:47:54.416Z,44.90
2018-02-09T10:48:59.938Z,46.10
2018-02-09T10:50:05.462Z,46.50
2018-02-09T10:51:10.992Z,44.10
2018-02-09T10:52:16.523Z,44.90
2018-02-09T10:53:22.051Z,45.20
2018-02-09T10:54:27.575Z,44.00
2018-02-09T10:55:33.100Z,44.90
2018-02-09T10:56:38.632Z,43.20
2018-02-09T10:57:44.156Z,43.90
2018-02-09T10:58:49.689Z,44.90
2018-02-09T10:59:55.216Z,44.10
2018-02-09T11:01:00.742Z,43.10
2018-02-09T11:02:06.273Z,43.50
2018-02-09T11:03:11.808Z,44.80
2018-02-09T11:04:17.329Z,42.70
2018-02-09T11:05:22.853Z,43.60
2018-02-09T11:06:28.390Z,44.50
2018-02-09T11:07:33.915Z,43.80
2018-02-09T11:08:39.453Z,43.80
2018-02-09T11:09:44.973Z,44.20
2018-02-09T11:10:50.502Z,43.30
2018-02-09T11:11:56.032Z,41.80
2018-02-09T11:13:01.558Z,43.00
2018-02-09T11:14:07.094Z,42.40
2018-02-09T11:15:12.618Z,45.00
2018-02-09T11:16:18.142Z,43.10
2018-02-09T11:17:23.673Z,44.00
2018-02-09T11:18:29.201Z,44.50
2018-02-09T11:19:34.727Z,45.50
2018-02-09T11:20:40.286Z,48.00
2018-02-09T11:21:45.791Z,46.30
2018-02-09T11:22:51.322Z,43.50
2018-02-09T11:23:56.850Z,44.30
2018-02-09T11:25:02.401Z,43.40
2018-02-09T11:26:07.905Z,41.30
2018-02-09T11:27:13.437Z,44.00
2018-02-09T11:28:18.961Z,42.10
2018-02-09T11:29:24.490Z,42.90
2018-02-09T11:30:30.026Z,42.30
2018-02-09T11:31:35.553Z,41.60
2018-02-09T11:34:12.920Z,42.00
2018-02-09T11:35:18.342Z,44.00
2018-02-09T11:36:23.869Z,43.80
2018-02-09T11:37:29.393Z,43.40
2018-02-09T11:38:34.915Z,45.90
2018-02-09T11:39:40.454Z,44.60
2018-02-09T11:40:46.026Z,43.20
2018-02-09T11:41:51.506Z,42.70
2018-02-09T11:42:57.036Z,44.00
2018-02-09T11:44:02.554Z,43.40
2018-02-09T11:45:08.142Z,46.70
2018-02-09T11:46:13.612Z,45.80
2018-02-09T11:47:19.149Z,41.90
2018-02-09T11:48:24.723Z,43.30
2018-02-09T11:49:30.243Z,42.60
2018-02-09T11:50:35.729Z,43.00
2018-02-09T11:51:41.276Z,40.30
2018-02-09T11:52:46.788Z,41.30
2018-02-09T11:53:52.310Z,42.80
2018-02-09T11:54:57.894Z,43.40
2018-02-09T11:56:03.362Z,41.90
2018-02-09T11:57:08.952Z,44.50
2018-02-09T11:58:14.423Z,43.50
2018-02-09T11:59:19.948Z,42.30
2018-02-09T12:00:25.489Z,43.60
2018-02-09T12:01:31.014Z,40.40
2018-02-09T12:02:36.539Z,43.70
2018-02-09T12:03:42.063Z,43.20
2018-02-09T12:04:47.597Z,42.30
2018-02-09T12:05:53.123Z,43.80
2018-02-09T12:06:58.655Z,45.00
2018-02-09T12:08:04.185Z,45.20
2018-02-09T12:09:09.706Z,44.50
2018-02-09T12:10:15.233Z,43.30
2018-02-09T12:11:20.771Z,44.60
2018-02-09T12:12:26.396Z,44.90
2018-02-09T12:13:31.834Z,42.80
2018-02-09T12:14:37.357Z,43.10
2018-02-09T12:15:42.883Z,42.00
2018-02-09T12:16:48.412Z,43.20
2018-02-09T12:17:53.947Z,41.20
2018-02-09T12:18:59.473Z,42.00
2018-02-09T12:20:05.004Z,41.40
2018-02-09T12:21:10.534Z,43.10
2018-02-09T12:22:16.063Z,44.60
2018-02-09T12:23:21.593Z,41.80
2018-02-09T12:24:27.123Z,43.60
2018-02-09T12:25:32.652Z,43.20
2018-02-09T12:26:38.184Z,43.90
2018-02-09T12:27:43.716Z,43.90
2018-02-09T12:28:49.244Z,43.90
2018-02-09T12:29:54.770Z,46.00
2018-02-09T12:31:00.304Z,42.40
2018-02-09T12:32:05.834Z,44.20
2018-02-09T12:33:11.363Z,43.90
2018-02-09T12:34:16.889Z,44.00
2018-02-09T12:35:22.423Z,42.80
2018-02-09T12:36:27.945Z,40.50
2018-02-09T12:37:33.480Z,42.80
2018-02-09T12:38:39.008Z,39.80
2018-02-09T12:39:44.537Z,41.40
2018-02-09T12:40:50.072Z,44.50
2018-02-09T12:41:55.607Z,43.90
2018-02-09T12:43:01.143Z,47.20
2018-02-09T12:44:06.660Z,42.30
2018-02-09T12:45:12.186Z,42.10
2018-02-09T12:46:17.723Z,46.10
2018-02-09T12:47:23.249Z,42.00
2018-02-09T12:48:28.783Z,44.10
2018-02-09T12:49:34.312Z,43.20
2018-02-09T12:50:39.839Z,45.10
2018-02-09T12:51:45.378Z,45.20
2018-02-09T12:52:50.894Z,44.10
2018-02-09T12:53:56.424Z,43.30
2018-02-09T12:55:01.958Z,44.10
2018-02-09T12:56:07.484Z,44.70
2018-02-09T12:57:13.024Z,43.10
2018-02-09T12:58:18.544Z,42.00
2018-02-09T12:59:24.081Z,41.50
2018-02-09T13:00:29.608Z,44.50
2018-02-09T13:01:35.134Z,42.30
2018-02-09T13:02:40.669Z,41.80
2018-02-09T13:03:46.200Z,40.40
2018-02-09T13:04:51.729Z,40.60
2018-02-09T13:05:57.255Z,42.60
2018-02-09T13:07:02.794Z,43.00
2018-02-09T13:08:08.319Z,42.60
2018-02-09T13:09:13.844Z,42.10
2018-02-09T13:10:19.377Z,42.90
2018-02-09T13:11:24.904Z,42.30
2018-02-09T13:12:30.443Z,43.10
2018-02-09T13:13:36.022Z,43.10
2018-02-09T13:14:41.497Z,43.00
2018-02-09T13:15:47.034Z,42.00
2018-02-09T13:16:52.560Z,42.00
2018-02-09T13:17:58.086Z,42.00
2018-02-09T13:19:03.619Z,43.70
2018-02-09T13:20:09.153Z,42.10
2018-02-09T13:21:14.684Z,42.80
2018-02-09T13:22:20.252Z,43.00
2018-02-09T13:23:25.744Z,44.90
2018-02-09T13:24:31.270Z,42.20
2018-02-09T13:25:36.808Z,42.70
2018-02-09T13:26:42.336Z,44.30
2018-02-09T13:27:47.861Z,43.80
2018-02-09T13:28:53.405Z,43.00
2018-02-09T13:29:58.921Z,42.80
2018-02-09T13:31:04.447Z,43.30
2018-02-09T13:32:09.986Z,43.70
2018-02-09T13:33:15.511Z,41.80
2018-02-09T13:34:21.039Z,43.10
2018-02-09T13:35:26.631Z,41.10
2018-02-09T13:36:32.094Z,41.40
2018-02-09T13:37:37.633Z,42.10
2018-02-09T13:38:43.158Z,41.90
2018-02-09T13:39:48.690Z,42.90
2018-02-09T13:40:54.225Z,41.20
2018-02-09T13:41:59.758Z,40.70
2018-02-09T13:43:05.281Z,41.10
2018-02-09T13:44:10.807Z,41.60
2018-02-09T13:45:16.344Z,42.20
2018-02-09T13:46:21.864Z,42.50
2018-02-09T13:47:27.398Z,42.50
2018-02-09T13:48:32.930Z,44.00
2018-02-09T13:49:38.459Z,42.20
2018-02-09T13:50:43.992Z,41.70
2018-02-09T13:51:49.569Z,43.90
2018-02-09T13:52:55.056Z,42.80
2018-02-09T13:54:00.578Z,45.30
2018-02-09T13:55:06.106Z,42.10
2018-02-09T13:56:11.648Z,42.40
2018-02-09T13:57:17.172Z,43.00
2018-02-09T13:58:22.701Z,42.80
2018-02-09T13:59:28.228Z,43.40
2018-02-09T14:00:33.756Z,43.80
2018-02-09T14:01:39.289Z,42.50
2018-02-09T14:02:44.836Z,42.30
2018-02-09T14:03:50.344Z,42.00
2018-02-09T14:04:55.885Z,42.60
2018-02-09T14:06:01.411Z,42.30
2018-02-09T14:07:06.942Z,43.90
2018-02-09T14:08:12.466Z,43.60
2018-02-09T14:09:18.001Z,44.50